Weather observations for the past three days for
Flemingsburg Fleming-Mason Airport
Imperial (Metric)
Date Time (edt) Wind (mph) Vis. (mi.) Weather Sky Cond. Temperature (ºF) Relative Humidity Wind Chill (°F) Heat Index (°F) Pressure Precipitation (in)
Air Dwpt 6 hour altimeter (in) sea level (mb) 1 hr 3 hr 6 hr
Max. Min.
04 20:55 N 5 10.00 Fair CLR 81.7 68 63% 85 29.98 0.0
04 20:35 NW 7 10.00 Fair CLR 81.5 67.6 63% 84 29.97 0.0
04 20:15 NW 6 10.00 Partly Cloudy SCT002 80.6 68.4 66% 83 29.97 0.0
04 19:55 NW 5 10.00 Fair CLR 81.5 69.1 96.6 81.5 66% 85 29.96 0.0
04 19:35 SW 7 10.00 Fair CLR 82 68.9 65% 85 29.96 0.0
04 19:15 S 9 10.00 Fair CLR 83.8 67.6 58% 87 29.94 0.0
04 18:55 S 6 10.00 Fair CLR 86.7 70.2 58% 92 29.95 0.0
04 18:35 S 6 10.00 Fair CLR 90.3 71.8 55% 97 29.96 0.0
04 18:15 S 5 10.00 Fair CLR 92.3 72.7 53% 101 29.99 0.0
04 17:55 S 7 10.00 Partly Cloudy SCT002 SCT100 92.5 70.3 49% 99 29.99 0.0
04 17:35 Calm 10.00 Mostly Cloudy SCT002 BKN110 91.8 70.2 49% 98 29.98 0.0
04 17:15 N 5 10.00 Mostly Cloudy SCT002 SCT065 BKN090 92.7 69.1 46% 98 29.99 0.0
04 16:55 N 7 10.00 Overcast BKN002 BKN065 OVC075 95.4 67.8 41% 100 29.98 0.0
04 16:35 N 8 10.00 Overcast BKN002 BKN065 OVC075 94.6 68 42% 99 29.98 0.0
04 16:15 N 9 10.00 Mostly Cloudy BKN002 96.3 67.8 40% 101 29.98 0.0
04 15:55 NE 6 10.00 Mostly Cloudy SCT002 BKN060 95.9 68.9 41% 102 29.98 0.0
04 15:35 S 6 10.00 Mostly Cloudy SCT002 SCT060 BKN075 94.3 70.5 46% 101 30 0.0
04 15:15 Calm 10.00 Mostly Cloudy BKN002 BKN075 93.6 69.4 45% 99 30.01 0.0
04 14:55 NE 6 10.00 Mostly Cloudy SCT002 BKN060 BKN100 88.7 69.4 53% 93 30.03 0.0
04 14:35 N 15 G 20 10.00 Overcast SCT002 BKN070 OVC120 87.8 70.2 56% 93 30.04 0.0
04 14:15 NE 12 G 22 10.00 Mostly Cloudy SCT002 BKN060 BKN080 87.8 70.3 56% 93 30.02 0.0
04 13:55 NW 16 G 23 10.00 Mostly Cloudy SCT002 BKN060 BKN070 97.9 68.4 98.4 75.6 38% 104 30.02 0.0
04 13:35 W 12 G 17 10.00 Partly Cloudy SCT002 SCT060 SCT070 97.2 69.1 40% 103 30.03 0.0
04 13:15 NW 8 G 18 10.00 Partly Cloudy SCT002 SCT060 97 69.3 41% 103 30.04 0.0
04 12:55 NW 8 10.00 Partly Cloudy SCT002 94.8 68.4 42% 100 30.04 0.0
04 12:35 NW 9 10.00 Fair CLR 95.4 69.3 43% 101 30.05 0.0
04 12:15 NW 10 10.00 Partly Cloudy SCT002 94.3 68.9 44% 100 30.05 0.0
04 11:15 NW 7 10.00 Fair CLR 91.9 71.6 52% 99 30.05 0.0
04 10:55 W 6 10.00 Fair CLR 90.5 72.3 55% 98 30.06 0.0
04 10:35 W 6 10.00 Fair CLR 89.1 72.7 59% 97 30.05 0.0
04 10:15 W 5 10.00 Fair CLR 88.3 73.2 61% 96 30.05 0.0
04 09:55 W 3 10.00 Fair CLR 86.7 73.4 65% 94 30.05 0.0
04 09:35 W 6 10.00 Fair CLR 84.6 73 68% 91 30.06 0.0
04 09:15 W 3 10.00 Fair CLR 82.4 72.7 73% 88 30.06 0.0
04 08:55 SW 3 10.00 Fair CLR 80.8 72.7 76% 85 30.06 0.0
04 08:35 W 3 10.00 Fair CLR 79 72.7 81% 82 30.06 0.0
04 08:15 SW 6 10.00 Fair CLR 76.8 72 85% 78 30.05 0.0
04 07:55 SW 6 10.00 Fair CLR 75.4 71.8 78.8 72.9 89% 75 30.04 0.0
04 07:35 SW 9 10.00 Fair CLR 74.7 72 91% 30.04 0.0
04 07:15 SW 7 10.00 Fair CLR 74.8 72.3 92% 30.03 0.0
04 06:55 SW 3 10.00 Fair CLR 74.7 72 91% 30.03 0.0
04 06:35 SW 5 10.00 Fair CLR 74.8 72 91% 30.03 0.0
04 06:15 S 5 10.00 Fair CLR 73.9 72 94% 30.03 0.0
04 05:55 S 5 10.00 Fair CLR 73 70.9 93% 30.03 0.0
04 05:35 Calm 10.00 Fair CLR 74.7 72.3 92% 30.03 0.0
04 05:15 S 3 10.00 Fair CLR 74.5 71.8 91% 30.02 0.0
04 04:55 Calm 10.00 Fair CLR 74.3 71.8 92% 30.02 0.0
04 04:35 Calm 10.00 Fair CLR 74.8 71.8 90% 30.02 0.0
04 04:15 Calm 10.00 Fair CLR 73.6 70.7 91% 30.02 0.0
04 03:55 Calm 10.00 Fair CLR 74.1 70.7 89% 30.02 0.0
04 03:35 Calm 10.00 Fair CLR 76.6 70.9 82% 78 30.02 0.0
04 03:15 Calm 10.00 Fair CLR 76.3 70.9 83% 77 30.02 0.0
04 02:55 Calm 10.00 Fair CLR 77 70.7 81% 79 30.02 0.0
04 02:35 SW 3 10.00 Fair CLR 77.4 70.7 80% 79 30.03 0.0
04 02:15 Calm 10.00 Fair CLR 77.5 70.7 80% 79 30.03 0.0
04 01:55 SW 5 10.00 Fair CLR 79 70.7 88 78.4 76% 82 30.04 0.0
04 01:35 SW 6 10.00 Fair CLR 78.8 71.1 77% 82 30.04 0.0
04 01:15 S 5 10.00 Fair CLR 78.8 71.1 77% 82 30.04 0.0
04 00:55 SW 6 10.00 Fair CLR 79.2 70.9 76% 82 30.04 0.0
04 00:35 SW 7 10.00 Fair CLR 79.3 70.3 74% 82 30.04 0.0
04 00:15 SW 5 10.00 Fair CLR 79.7 69.8 72% 83 30.04 0.0
03 23:55 SW 6 10.00 Fair CLR 79.9 69.8 71% 83 30.04 0.0
03 23:35 SW 5 10.00 Fair CLR 80.4 69.8 70% 84 30.04 0.0
03 23:15 SW 3 10.00 Fair CLR 81.5 69.8 68% 85 30.04 0.0
03 22:55 W 5 10.00 Fair CLR 82 69.4 66% 86 30.04 0.0
03 22:35 W 5 10.00 Fair CLR 82.9 69.3 63% 87 30.05 0.0
03 22:15 W 3 10.00 Fair CLR 83.5 69.1 62% 87 30.05 0.0
03 21:55 Calm 10.00 Fair CLR 84.6 68.9 59% 88 30.05 0.0
03 21:35 W 3 10.00 Fair CLR 85.6 68.9 57% 90 30.05 0.0
03 21:15 W 3 10.00 Fair CLR 86.7 68.9 55% 91 30.04 0.0
03 20:55 W 3 10.00 Fair CLR 86.9 68.5 54% 91 30.04 0.0
03 20:35 Calm 10.00 Fair CLR 87.1 68.9 55% 91 30.03 0.0
03 20:15 W 3 10.00 Fair CLR 87.4 68.9 54% 92 30.02 0.0
03 19:55 W 3 10.00 Fair CLR 88.2 68.9 98.4 88.2 53% 92 30.02 0.0
03 19:35 Calm 10.00 Fair CLR 89.6 69.1 51% 94 30.02 0.0
03 19:15 W 5 10.00 Fair CLR 91.2 68.9 48% 96 30.01 0.0
03 18:55 W 8 10.00 Fair CLR 92.7 68.4 45% 97 30.01 0.0
03 18:35 W 7 10.00 Fair CLR 94.1 68 43% 99 30.01 0.0
03 18:15 W 9 10.00 Fair CLR 94.5 67.8 42% 99 30 0.0
03 17:55 W 12 G 16 10.00 Fair CLR 95.2 67.1 40% 99 30 0.0
03 17:35 W 12 10.00 Fair CLR 95.9 67.1 39% 100 30 0.0
03 17:15 W 10 10.00 Fair CLR 97 68.4 39% 102 30 0.0
03 16:55 W 13 10.00 Fair CLR 97.2 67.6 38% 102 30 0.0
03 16:35 W 12 G 16 10.00 Fair CLR 97.2 67.1 37% 102 30.02 0.0
03 16:15 W 7 10.00 Fair CLR 97.5 66.9 37% 102 30.02 0.0
03 15:55 W 9 10.00 Fair CLR 97.5 68.2 38% 103 30.03 0.0
03 15:35 W 3 10.00 Partly Cloudy SCT085 95.9 67.8 40% 101 30.04 0.0
03 15:15 W 9 10.00 Partly Cloudy SCT002 SCT065 97.9 69.3 39% 104 30.04 0.0
03 14:55 W 7 10.00 Partly Cloudy SCT065 SCT080 93.7 68.5 44% 99 30.05 0.0
03 14:35 W 12 10.00 Partly Cloudy SCT080 97.3 68.7 39% 103 30.05 0.0
03 14:15 NW 12 10.00 Fair CLR 96.6 67.3 38% 101 30.05 0.0
03 13:55 NW 10 G 17 10.00 Fair CLR 95.2 67.3 97.2 75.4 40% 99 30.06 0.0
03 13:35 W 9 10.00 Fair CLR 95.9 68.9 41% 102 30.06 0.0
03 13:15 W 13 G 16 10.00 Fair CLR 95.9 68 40% 101 30.07 0.0
03 12:55 W 10 10.00 Fair CLR 95.5 67.1 39% 100 30.07 0.0
03 12:35 W 12 10.00 Fair CLR 95.4 68.4 41% 100 30.08 0.0
03 12:15 W 6 10.00 Fair CLR 94.3 69.1 44% 100 30.09 0.0
03 11:55 W 3 10.00 Fair CLR 93.7 69.8 46% 100 30.09 0.0
03 11:35 SW 3 10.00 Fair CLR 92.3 70 48% 98 30.09 0.0
03 11:15 W 5 10.00 Fair CLR 90.3 70 51% 96 30.09 0.0
03 10:55 W 3 10.00 Fair CLR 90 71.1 54% 96 30.09 0.0
03 10:35 W 5 10.00 Fair CLR 87.3 70 57% 92 30.08 0.0
03 10:15 W 6 10.00 Fair CLR 87.6 71.2 58% 94 30.08 0.0
03 09:55 W 6 10.00 Fair CLR 86.4 71.1 60% 92 30.09 0.0
03 09:35 W 6 10.00 Fair CLR 84.6 72 66% 90 30.09 0.0
03 09:15 Calm 10.00 Fair CLR 82 71.8 71% 87 30.1 0.0
03 08:55 W 5 10.00 Fair CLR 79.9 71.2 75% 83 30.1 0.0
03 08:35 SW 6 10.00 Fair CLR 77.7 70.9 80% 80 30.1 0.0
03 08:15 SW 5 10.00 Fair CLR 76.6 70.3 81% 78 30.1 0.0
03 07:55 SW 3 10.00 Fair CLR 75.4 70 76.3 73.4 83% 76 30.1 0.0
03 07:35 SW 6 10.00 Fair CLR 74.3 70 86% 30.1 0.0
03 07:15 W 3 10.00 Fair CLR 73.4 69.8 89% 30.09 0.0
03 06:55 SW 5 10.00 Fair CLR 74.1 70 87% 30.08 0.0
03 06:35 SW 6 10.00 Fair CLR 73.6 70.2 89% 30.08 0.0
03 06:15 SW 6 10.00 Fair CLR 74.5 70.3 87% 30.08 0.0
03 05:55 SW 5 10.00 Fair CLR 74.5 70.5 88% 30.08 0.0
03 05:35 SW 6 10.00 Fair CLR 75 70.7 86% 75 30.08 0.0
03 05:15 SW 7 10.00 Fair CLR 75.2 70.7 86% 75 30.08 0.0
03 04:55 SW 6 10.00 Fair CLR 75.2 70.9 87% 75 30.08 0.0
03 04:35 SW 6 10.00 Fair CLR 75.2 70.7 86% 75 30.08 0.0
03 04:15 SW 7 10.00 Fair CLR 75.6 70.5 84% 76 30.08 0.0
03 03:55 SW 6 10.00 Fair CLR 75.7 70.3 83% 76 30.08 0.0
03 03:35 SW 6 10.00 Fair CLR 76.1 70.2 82% 77 30.07 0.0
03 03:15 SW 6 10.00 Fair CLR 76.3 70 81% 77 30.07 0.0
03 02:55 SW 6 10.00 Fair CLR 76.1 70.2 82% 77 30.07 0.0
03 02:35 SW 5 10.00 Fair CLR 75.9 70.2 82% 77 30.06 0.0
03 02:15 SW 6 10.00 Fair CLR 76.3 70.3 82% 77 30.07 0.0
03 01:55 S 6 10.00 Fair CLR 76.1 70.5 86.4 76.1 83% 77 30.07 0.0
03 01:35 S 7 10.00 Fair CLR 77 70.2 80% 79 30.07 0.0
03 01:15 SW 7 10.00 Fair CLR 77.7 69.8 77% 80 30.06 0.0
03 00:55 S 7 10.00 Fair CLR 77.5 69.8 77% 79 30.06 0.0
03 00:35 S 6 10.00 Fair CLR 77.9 69.3 75% 80 30.06 0.0
03 00:15 S 5 10.00 Fair CLR 77.9 68.9 74% 80 30.06 0.0
02 23:55 S 3 10.00 Fair CLR 78.1 68.5 73% 80 30.07 0.0
02 23:35 SW 3 10.00 Fair CLR 79.2 68.4 70% 82 30.07 0.0
02 23:15 SW 3 10.00 Fair CLR 80.2 68.5 68% 83 30.07 0.0
02 22:55 SW 3 10.00 Fair CLR 81.7 68.5 65% 85 30.07 0.0
02 22:35 W 3 10.00 Fair CLR 82.4 68.2 62% 85 30.07 0.0
02 22:15 W 3 10.00 Fair CLR 81.9 68.7 65% 85 30.07 0.0
02 21:55 W 5 10.00 Fair CLR 82.4 68.9 64% 86 30.07 0.0
02 21:35 W 3 10.00 Fair CLR 82.9 68.9 63% 86 30.07 0.0
02 21:15 W 5 10.00 Fair CLR 83.3 68.9 62% 87 30.06 0.0
02 20:55 W 5 10.00 Fair CLR 83.5 68.9 62% 87 30.06 0.0
02 20:35 W 5 10.00 Fair CLR 84.9 68.7 58% 89 30.05 0.0
02 20:15 W 5 10.00 Fair CLR 85.6 68.9 57% 90 30.05 0.0
02 19:55 W 5 10.00 Fair CLR 86.5 69.4 96.6 86.5 57% 91 30.05 0.0
02 19:35 W 5 10.00 Fair CLR 88.2 69.8 55% 93 30.06 0.0
02 19:15 W 5 10.00 Fair CLR 90.3 69.4 50% 95 30.05 0.0
02 18:55 W 6 10.00 Fair CLR 91.8 69.6 48% 97 30.05 0.0
02 18:35 W 8 10.00 Fair CLR 92.5 68.9 46% 97 30.06 0.0
02 18:15 W 8 10.00 Fair CLR 93.9 68.5 44% 99 30.06 0.0
02 17:55 W 12 10.00 Fair CLR 94.8 68.4 42% 100 30.06 0.0
02 17:35 W 9 10.00 Fair CLR 95 68.5 42% 100 30.06 0.0
02 17:15 W 8 10.00 Partly Cloudy SCT055 95.2 68.9 42% 101 30.06 0.0
02 16:55 W 7 10.00 Partly Cloudy SCT055 96.1 68.9 41% 102 30.06 0.0
02 16:35 W 9 10.00 Partly Cloudy SCT055 95.9 69.3 42% 102 30.07 0.0
02 16:15 W 6 10.00 Fair CLR 94.5 70.2 45% 101 30.07 0.0
02 15:55 W 7 10.00 Partly Cloudy SCT055 95.9 70.2 43% 103 30.08 0.0
02 15:35 W 6 10.00 Partly Cloudy SCT055 SCT065 96.3 69.8 42% 103 30.09 0.0
02 15:15 W 8 10.00 Fair CLR 94.8 69.3 43% 101 30.09 0.0
02 14:55 W 10 10.00 Fair CLR 95.4 69.8 44% 102 30.1 0.0
02 14:35 W 10 10.00 Partly Cloudy SCT055 94.8 68.9 43% 100 30.1 0.0
02 14:15 W 10 10.00 Fair CLR 95.4 69.3 43% 101 30.1 0.0
02 13:55 W 9 10.00 Partly Cloudy SCT080 95 69.3 95.5 72.7 43% 101 30.1 0.0
02 13:35 NW 6 10.00 Partly Cloudy SCT049 SCT060 SCT075 93 68.4 45% 98 30.11 0.0
02 13:15 W 9 10.00 Partly Cloudy SCT049 SCT060 SCT075 94.5 70.2 45% 101 30.12 0.0
02 12:55 NW 3 10.00 Partly Cloudy SCT047 93.2 70 47% 99 30.13 0.0
02 12:35 W 3 10.00 Partly Cloudy SCT047 92.8 70 47% 99 30.13 0.0
02 12:15 Calm 10.00 Fair CLR 91.8 70.2 49% 98 30.15 0.0
02 11:55 NW 3 10.00 Fair CLR 89.8 70 52% 95 30.14 0.0
02 11:35 Calm 10.00 Fair CLR 89.8 70.7 53% 96 30.15 0.0
02 11:15 W 5 10.00 Fair CLR 88.5 71.2 57% 95 30.15 0.0
02 10:55 W 5 10.00 Fair CLR 87.1 70.9 59% 93 30.15 0.0
02 10:35 W 5 10.00 Fair CLR 86.7 71.1 60% 92 30.15 0.0
02 10:15 W 5 10.00 Fair CLR 85.3 70.9 62% 90 30.15 0.0
02 09:55 W 7 10.00 Fair CLR 84.4 71.1 64% 89 30.15 0.0
02 09:35 W 6 10.00 Fair CLR 82.4 71.1 69% 87 30.14 0.0
02 09:15 W 3 10.00 Fair CLR 79.9 70.9 74% 83 30.14 0.0
02 08:55 W 3 10.00 Fair CLR 77.5 70.7 80% 79 30.13 0.0
02 08:35 SW 6 10.00 Fair CLR 75.2 69.8 83% 75 30.13 0.0
02 08:15 SW 6 10.00 Fair CLR 73.9 69.6 86% 30.13 0.0
02 07:55 SW 5 10.00 Fair CLR 72.5 69.3 75.2 69.8 90% 30.13 0.0
02 07:35 S 5 10.00 Fair CLR 71.4 68.9 92% 30.12 0.0
02 07:15 S 6 10.00 Fair CLR 69.8 68.4 95% 30.12 0.0
02 06:55 S 3 10.00 Fair CLR 70.9 68.9 94% 30.11 0.0
02 06:35 SW 3 10.00 Fair CLR 70.9 69.3 95% 30.11 0.0
02 06:15 SW 3 10.00 Fair CLR 71.1 69.1 94% 30.11 0.0
02 05:55 SW 3 10.00 Fair CLR 71.1 69.1 94% 30.11 0.0
02 05:35 Calm 10.00 Fair CLR 71.2 69.1 93% 30.1 0.0
02 05:15 Calm 10.00 Fair CLR 72 69.3 91% 30.1 0.0
02 04:55 S 6 10.00 Fair CLR 72.5 69.4 90% 30.1 0.0
02 04:35 S 6 10.00 Fair CLR 72.5 69.3 90% 30.1 0.0
02 04:15 SW 6 10.00 Fair CLR 72.9 69.1 88% 30.1 0.0
02 03:55 SW 6 10.00 Fair CLR 73 69.1 87% 30.09 0.0
02 03:35 SW 6 10.00 Fair CLR 73.4 69.1 86% 30.09 0.0
02 03:15 S 7 10.00 Fair CLR 73.6 69.1 86% 30.08 0.0
02 02:55 S 7 10.00 Fair CLR 74.3 69.3 84% 30.08 0.0
02 02:35 SW 6 10.00 Fair CLR 74.3 69.3 84% 30.08 0.0
02 02:15 S 7 10.00 Fair CLR 74.7 69.4 84% 30.09 0.0
02 01:55 SW 7 10.00 Fair CLR 75.2 69.3 86 75.2 82% 76 30.09 0.0
02 01:35 SW 6 10.00 Fair CLR 75.6 69.1 80% 76 30.09 0.0
02 01:15 SW 6 10.00 Fair CLR 76.1 69.3 79% 77 30.09 0.0
02 00:55 SW 6 10.00 Fair CLR 76.1 69.3 79% 77 30.09 0.0
02 00:35 SW 5 10.00 Fair CLR 76.5 69.1 78% 78 30.09 0.0
02 00:15 SW 5 10.00 Fair CLR 77 68.9 76% 79 30.09 0.0
01 23:55 SW 5 10.00 Fair CLR 77.5 68.9 75% 79 30.09 0.0
01 23:35 SW 5 10.00 Fair CLR 77.2 68.5 75% 79 30.09 0.0
01 23:15 SW 3 10.00 Fair CLR 78.3 68.9 73% 81 30.09 0.0
01 22:55 Calm 10.00 Fair CLR 79.3 68.9 71% 82 30.1 0.0
01 22:35 Calm 10.00 Fair CLR 80.1 68.7 68% 83 30.09 0.0
01 22:15 W 3 10.00 Fair CLR 81 68.7 66% 84 30.09 0.0
01 21:55 W 3 10.00 Fair CLR 81.1 68.7 66% 84 30.09 0.0
01 21:35 W 5 10.00 Fair CLR 81.7 68.4 64% 85 30.09 0.0
01 21:15 SW 3 10.00 Fair CLR 82.6 68.5 63% 86 30.08 0.0
Date Time (edt) Wind (mph) Vis. (mi.) Weather Sky Cond. Air Dwpt Max. Min. Relative Humidity Wind Chill (°F) Heat Index (°F) altimeter (in) sea level (mb) 1 hr 3 hr 6 hr
6 hour
Temperature (ºF) Pressure Precipitation (in)